Alpha, New Jersey
Current Conditions -  °F | °C
As of 9:51 PM on Friday 28 Nov 2014 (Local Time) from KABE Reporting Station
Clear Clear  
Wind Chill: -6°   Ceiling: Unl
Heat Index: -6°   Visibility: 10mi
Dew Point: -11°   Wind: 0mph
Humidity: 71%   Direction: NA
Pressure: 30.26"   Gusts: NA
Location:  40.7083°N, 75.1472°W
Report Text: KABE 290251Z 00000KT 10SM CLR M06/M11 A3026 RMK AO2 SLP253 T10611106 51008 $
Loading
Personal Weather Stations






























Interactive Weather Map New forecast layout! Learn more

10-Day Weather Forecast

Advertisements
Track Severe Weather on mobile